createdAt,value
2023-01-28T00:00:54.729Z,16.80
2023-01-28T00:03:22.223Z,16.42
2023-01-28T00:05:49.607Z,16.38
2023-01-28T00:08:16.999Z,17.65
2023-01-28T00:10:44.395Z,20.35
2023-01-28T00:13:14.837Z,18.50
2023-01-28T00:15:42.346Z,15.48
2023-01-28T00:18:09.684Z,16.65
2023-01-28T00:20:37.247Z,18.90
2023-01-28T00:23:04.616Z,17.65
2023-01-28T00:25:31.925Z,18.55
2023-01-28T00:27:59.245Z,16.75
2023-01-28T00:30:26.563Z,18.17
2023-01-28T00:32:54.877Z,15.48
2023-01-28T00:35:22.241Z,13.25
2023-01-28T00:37:49.547Z,18.92
2023-01-28T00:40:17.009Z,18.05
2023-01-28T00:42:44.421Z,18.25
2023-01-28T00:45:11.922Z,16.42
2023-01-28T00:47:39.233Z,16.90
2023-01-28T00:50:07.046Z,23.88
2023-01-28T00:52:34.415Z,14.82
2023-01-28T00:55:01.791Z,18.08
2023-01-28T00:57:29.099Z,16.25
2023-01-28T00:59:56.419Z,16.80
2023-01-28T01:02:23.992Z,15.20
2023-01-28T01:05:00.426Z,16.92
2023-01-28T01:07:34.799Z,16.42
2023-01-28T01:10:02.784Z,16.13
2023-01-28T01:12:30.575Z,16.60
2023-01-28T01:14:57.909Z,13.38
2023-01-28T01:17:25.273Z,15.32
2023-01-28T01:19:52.595Z,12.98
2023-01-28T01:22:19.995Z,12.65
2023-01-28T01:24:48.486Z,15.20
2023-01-28T01:27:15.741Z,13.80
2023-01-28T01:29:43.044Z,14.38
2023-01-28T01:32:10.410Z,14.85
2023-01-28T01:34:37.847Z,18.40
2023-01-28T01:37:06.410Z,18.00
2023-01-28T01:39:33.943Z,11.60
2023-01-28T01:42:01.830Z,12.98
2023-01-28T01:44:50.862Z,14.68
2023-01-28T01:47:19.014Z,15.18
2023-01-28T01:49:46.503Z,16.63
2023-01-28T01:52:21.148Z,16.02
2023-01-28T01:54:52.799Z,13.15
2023-01-28T01:57:24.963Z,13.25
2023-01-28T01:59:53.551Z,14.80
2023-01-28T02:02:21.869Z,11.85
2023-01-28T02:04:49.333Z,12.38
2023-01-28T02:07:18.491Z,13.30
2023-01-28T02:09:45.803Z,13.07
2023-01-28T02:12:27.455Z,15.95
2023-01-28T02:15:08.488Z,16.17
2023-01-28T02:17:37.221Z,16.10
2023-01-28T02:20:13.923Z,12.40
2023-01-28T02:22:57.322Z,13.48
2023-01-28T02:25:48.967Z,11.80
2023-01-28T02:28:40.048Z,20.15
2023-01-28T02:31:11.780Z,13.32
2023-01-28T02:33:51.785Z,12.02
2023-01-28T02:37:02.767Z,13.02
2023-01-28T02:39:35.781Z,18.17
2023-01-28T02:42:07.868Z,14.38
2023-01-28T02:44:35.206Z,11.77
2023-01-28T02:47:21.292Z,13.10
2023-01-28T02:49:54.396Z,9.55
2023-01-28T02:53:04.195Z,11.70
2023-01-28T02:55:44.137Z,13.70
2023-01-28T02:58:24.727Z,10.80
2023-01-28T03:01:18.454Z,11.57
2023-01-28T03:04:03.942Z,13.27
2023-01-28T03:06:39.220Z,10.05
2023-01-28T03:09:28.135Z,13.82
2023-01-28T03:12:15.504Z,10.32
2023-01-28T03:15:03.992Z,13.07
2023-01-28T03:17:56.438Z,11.88
2023-01-28T03:20:45.731Z,11.13
2023-01-28T03:23:39.102Z,10.35
2023-01-28T03:26:27.566Z,12.00
2023-01-28T03:29:18.741Z,14.15
2023-01-28T03:32:04.653Z,14.38
2023-01-28T03:34:50.619Z,10.40
2023-01-28T03:37:18.159Z,11.73
2023-01-28T03:39:48.761Z,12.55
2023-01-28T03:42:18.615Z,13.18
2023-01-28T03:45:08.023Z,13.65
2023-01-28T03:47:35.671Z,14.88
2023-01-28T03:50:07.247Z,11.23
2023-01-28T03:52:42.926Z,10.32
2023-01-28T03:55:25.924Z,12.48
2023-01-28T03:57:53.929Z,9.23
2023-01-28T04:00:22.047Z,10.23
2023-01-28T04:02:49.498Z,10.07
2023-01-28T04:05:20.277Z,13.35
2023-01-28T04:07:51.785Z,10.32
2023-01-28T04:10:26.796Z,14.20
2023-01-28T04:13:05.601Z,12.70
2023-01-28T04:15:33.862Z,10.32
2023-01-28T04:18:01.219Z,10.13
2023-01-28T04:20:31.752Z,9.98
2023-01-28T04:23:00.810Z,9.05
2023-01-28T04:25:29.346Z,13.75
2023-01-28T04:27:56.843Z,12.18
2023-01-28T04:30:28.163Z,13.77
2023-01-28T04:33:24.968Z,10.80
2023-01-28T04:36:00.391Z,12.60
2023-01-28T04:38:46.279Z,12.52
2023-01-28T04:41:40.793Z,10.88
2023-01-28T04:44:26.762Z,10.00
2023-01-28T04:47:01.334Z,11.77
2023-01-28T04:49:47.373Z,12.85
2023-01-28T04:52:26.834Z,8.32
2023-01-28T04:55:17.653Z,11.35
2023-01-28T04:57:50.551Z,13.23
2023-01-28T05:02:45.674Z,7.18
2023-01-28T05:05:13.464Z,10.32
2023-01-28T05:07:56.951Z,8.38
2023-01-28T05:10:26.218Z,9.77
2023-01-28T05:12:54.783Z,7.63
2023-01-28T05:15:22.598Z,10.43
2023-01-28T05:17:56.167Z,13.15
2023-01-28T05:20:24.197Z,14.25
2023-01-28T05:22:52.135Z,8.52
2023-01-28T05:25:22.381Z,11.75
2023-01-28T05:27:51.650Z,9.45
2023-01-28T05:30:20.423Z,10.18
2023-01-28T05:32:48.145Z,9.07
2023-01-28T05:35:18.272Z,9.25
2023-01-28T05:37:45.842Z,8.25
2023-01-28T05:40:14.117Z,8.55
2023-01-28T05:42:41.552Z,8.50
2023-01-28T05:45:22.859Z,11.57
2023-01-28T05:48:02.584Z,11.48
2023-01-28T05:50:56.125Z,10.70
2023-01-28T05:53:32.939Z,9.63
2023-01-28T05:56:00.613Z,8.27
2023-01-28T05:58:32.122Z,9.25
2023-01-28T06:01:03.010Z,8.68
2023-01-28T06:03:39.033Z,11.77
2023-01-28T06:06:06.730Z,8.32
2023-01-28T06:08:34.146Z,11.55
2023-01-28T06:11:01.576Z,10.35
2023-01-28T06:13:33.269Z,9.18
2023-01-28T06:16:26.552Z,8.65
2023-01-28T06:19:12.554Z,7.07
2023-01-28T06:21:39.892Z,12.10
2023-01-28T06:24:07.529Z,9.98
2023-01-28T06:26:34.939Z,9.27
2023-01-28T06:29:02.346Z,11.13
2023-01-28T06:31:29.681Z,10.02
2023-01-28T06:33:57.015Z,9.75
2023-01-28T06:36:24.385Z,12.32
2023-01-28T06:38:51.800Z,9.10
2023-01-28T06:41:19.047Z,10.32
2023-01-28T06:43:46.314Z,8.68
2023-01-28T06:46:13.753Z,12.35
2023-01-28T06:48:41.107Z,11.20
2023-01-28T06:51:08.442Z,9.57
2023-01-28T06:53:35.794Z,9.65
2023-01-28T06:56:03.298Z,8.68
2023-01-28T06:58:30.799Z,11.88
2023-01-28T07:00:58.197Z,10.27
2023-01-28T07:03:25.631Z,12.60
2023-01-28T07:05:53.040Z,7.47
2023-01-28T07:08:20.344Z,10.35
2023-01-28T07:10:49.271Z,11.77
2023-01-28T07:13:16.673Z,10.82
2023-01-28T07:15:44.535Z,9.10
2023-01-28T07:18:11.999Z,10.23
2023-01-28T07:20:39.262Z,9.38
2023-01-28T07:23:06.621Z,12.98
2023-01-28T07:25:34.015Z,10.95
2023-01-28T07:28:02.020Z,8.68
2023-01-28T07:30:29.380Z,10.88
2023-01-28T07:32:58.260Z,15.30
2023-01-28T07:35:26.683Z,12.35
2023-01-28T07:37:59.057Z,11.30
2023-01-28T07:40:27.642Z,10.48
2023-01-28T07:42:56.428Z,12.13
2023-01-28T07:45:25.873Z,12.32
2023-01-28T07:48:01.902Z,10.25
2023-01-28T07:50:30.625Z,8.93
2023-01-28T07:52:57.971Z,10.82
2023-01-28T07:55:25.788Z,8.77
2023-01-28T07:57:56.845Z,10.63
2023-01-28T08:00:25.744Z,8.73
2023-01-28T08:03:01.160Z,10.07
2023-01-28T08:05:41.531Z,12.48
2023-01-28T08:08:10.043Z,9.90
2023-01-28T08:10:38.296Z,9.25
2023-01-28T08:13:06.640Z,11.63
2023-01-28T08:15:35.467Z,9.90
2023-01-28T08:18:04.243Z,11.35
2023-01-28T08:20:31.794Z,14.73
2023-01-28T08:23:18.157Z,11.30
2023-01-28T08:25:46.778Z,14.48
2023-01-28T08:28:15.366Z,13.52
2023-01-28T08:30:44.298Z,10.15
2023-01-28T08:33:13.760Z,13.95
2023-01-28T08:35:41.565Z,10.15
2023-01-28T08:38:10.524Z,10.98
2023-01-28T08:40:38.111Z,12.68
2023-01-28T08:43:05.566Z,8.32
2023-01-28T08:45:33.349Z,13.80
2023-01-28T08:48:03.289Z,14.07
2023-01-28T08:50:35.998Z,9.63
2023-01-28T08:53:07.605Z,14.02
2023-01-28T08:55:35.193Z,9.43
2023-01-28T08:58:04.602Z,11.05
2023-01-28T09:00:32.789Z,14.40
2023-01-28T09:03:00.157Z,10.95
2023-01-28T09:05:27.575Z,15.07
2023-01-28T09:07:54.969Z,11.00
2023-01-28T09:10:22.443Z,12.52
2023-01-28T09:12:49.723Z,11.52
2023-01-28T09:15:17.911Z,14.07
2023-01-28T09:17:45.232Z,14.15
2023-01-28T09:20:13.665Z,19.73
2023-01-28T09:22:41.339Z,20.70
2023-01-28T09:25:09.417Z,20.95
2023-01-28T09:27:36.701Z,15.73
2023-01-28T09:30:04.427Z,20.08
2023-01-28T09:32:31.710Z,22.30
2023-01-28T09:34:59.154Z,17.27
2023-01-28T09:37:26.517Z,16.52
2023-01-28T09:39:53.805Z,17.13
2023-01-28T09:42:39.621Z,18.90
2023-01-28T09:45:19.062Z,18.42
2023-01-28T09:47:57.981Z,15.00
2023-01-28T09:50:33.250Z,13.57
2023-01-28T09:53:06.782Z,16.10
2023-01-28T09:55:44.291Z,12.55
2023-01-28T09:58:15.646Z,14.98
2023-01-28T10:01:11.059Z,11.82
2023-01-28T10:03:54.782Z,17.13
2023-01-28T10:06:31.158Z,14.35
2023-01-28T10:09:41.353Z,13.43
2023-01-28T10:12:17.590Z,14.10
2023-01-28T10:14:53.817Z,11.80
2023-01-28T10:17:32.231Z,12.00
2023-01-28T10:20:18.093Z,13.50
2023-01-28T10:23:06.031Z,13.40
2023-01-28T10:25:34.859Z,11.73
2023-01-28T10:28:02.895Z,13.73
2023-01-28T10:30:32.901Z,11.73
2023-01-28T10:33:16.141Z,11.23
2023-01-28T10:35:43.786Z,15.65
2023-01-28T10:38:16.249Z,12.48
2023-01-28T10:40:44.491Z,12.57
2023-01-28T10:43:11.942Z,13.18
2023-01-28T10:46:19.133Z,12.77
2023-01-28T10:49:02.475Z,15.63
2023-01-28T10:51:39.076Z,10.82
2023-01-28T10:54:21.640Z,11.70
2023-01-28T10:56:53.119Z,12.52
2023-01-28T10:59:36.726Z,12.40
2023-01-28T11:02:25.785Z,20.52
2023-01-28T11:05:11.544Z,8.90
2023-01-28T11:07:38.955Z,11.07
2023-01-28T11:10:24.384Z,11.55
2023-01-28T11:12:59.586Z,13.68
2023-01-28T11:15:27.171Z,13.25
2023-01-28T11:18:02.124Z,12.77
2023-01-28T11:20:35.485Z,12.88
2023-01-28T11:23:02.828Z,12.25
2023-01-28T11:25:34.347Z,11.13
2023-01-28T11:28:07.674Z,15.07
2023-01-28T11:30:40.303Z,10.70
2023-01-28T11:33:10.714Z,16.45
2023-01-28T11:35:38.035Z,17.20
2023-01-28T11:38:21.896Z,16.38
2023-01-28T11:40:53.689Z,12.60
2023-01-28T11:43:23.325Z,13.30
2023-01-28T11:46:18.831Z,18.35
2023-01-28T11:49:11.841Z,18.35
2023-01-28T11:52:00.484Z,21.23
2023-01-28T11:54:39.081Z,25.42
2023-01-28T11:57:24.259Z,27.40
2023-01-28T12:00:16.851Z,30.13
2023-01-28T12:03:06.074Z,31.42
2023-01-28T12:05:46.278Z,25.48
2023-01-28T12:08:20.553Z,34.63
2023-01-28T12:11:15.152Z,27.80
2023-01-28T12:14:10.471Z,27.02
2023-01-28T12:17:07.517Z,23.67
2023-01-28T12:19:46.745Z,27.95
2023-01-28T12:22:35.488Z,22.50
2023-01-28T12:25:33.571Z,21.67
2023-01-28T12:28:16.433Z,23.38
2023-01-28T12:30:49.889Z,29.15
2023-01-28T12:33:44.516Z,25.27
2023-01-28T12:36:36.043Z,21.60
2023-01-28T12:39:17.986Z,19.38
2023-01-28T12:44:29.196Z,22.27
2023-01-28T12:47:07.797Z,25.40
2023-01-28T12:49:37.459Z,22.83
2023-01-28T12:52:19.095Z,24.48
2023-01-28T12:55:00.370Z,21.95
2023-01-28T12:57:31.096Z,16.77
2023-01-28T13:00:19.050Z,19.45
2023-01-28T13:02:55.856Z,13.68
2023-01-28T13:05:31.130Z,17.38
2023-01-28T13:08:11.897Z,13.60
2023-01-28T13:10:44.170Z,18.48
2023-01-28T13:13:32.282Z,14.00
2023-01-28T13:16:00.697Z,17.00
2023-01-28T13:18:42.530Z,16.00
2023-01-28T13:21:43.721Z,17.25
2023-01-28T13:24:16.125Z,13.32
2023-01-28T13:26:49.290Z,15.63
2023-01-28T13:29:28.148Z,14.68
2023-01-28T13:31:58.522Z,10.98
2023-01-28T13:34:56.956Z,17.52
2023-01-28T13:37:32.197Z,14.32
2023-01-28T13:40:05.162Z,13.68
2023-01-28T13:42:33.040Z,15.32
2023-01-28T13:45:15.607Z,12.05
2023-01-28T13:47:50.677Z,10.43
2023-01-28T13:50:25.541Z,19.10
2023-01-28T13:53:00.670Z,12.43
2023-01-28T13:55:44.797Z,13.48
2023-01-28T13:59:09.611Z,22.83
2023-01-28T14:01:54.893Z,15.55
2023-01-28T14:04:22.263Z,18.30
2023-01-28T14:07:17.427Z,20.10
2023-01-28T14:10:13.995Z,18.33
2023-01-28T14:12:57.805Z,14.43
2023-01-28T14:15:54.672Z,16.92
2023-01-28T14:18:33.584Z,11.48
2023-01-28T14:21:03.321Z,10.98
2023-01-28T14:23:32.413Z,13.18
2023-01-28T14:26:16.248Z,15.98
2023-01-28T14:28:46.636Z,10.38
2023-01-28T14:31:34.878Z,12.38
2023-01-28T14:34:22.910Z,10.48
2023-01-28T14:36:52.687Z,12.50
2023-01-28T14:39:39.487Z,12.30
2023-01-28T14:42:23.459Z,12.20
2023-01-28T14:45:02.008Z,7.25
2023-01-28T14:47:34.919Z,11.73
2023-01-28T14:50:08.325Z,7.95
2023-01-28T14:53:01.595Z,8.02
2023-01-28T14:55:53.715Z,9.23
2023-01-28T15:01:00.233Z,8.90
2023-01-28T15:03:29.507Z,13.52
2023-01-28T15:06:15.532Z,9.98
2023-01-28T15:08:43.246Z,8.63
2023-01-28T15:11:18.298Z,9.65
2023-01-28T15:13:49.426Z,8.43
2023-01-28T15:16:20.420Z,10.07
2023-01-28T15:18:49.451Z,10.35
2023-01-28T15:21:28.149Z,8.70
2023-01-28T15:24:01.012Z,13.60
2023-01-28T15:26:31.805Z,8.80
2023-01-28T15:29:00.418Z,11.85
2023-01-28T15:31:33.647Z,11.10
2023-01-28T15:34:02.305Z,10.88
2023-01-28T15:36:31.141Z,11.30
2023-01-28T15:38:59.971Z,14.27
2023-01-28T15:41:35.062Z,10.52
2023-01-28T15:44:04.051Z,19.27
2023-01-28T15:46:32.143Z,9.85
2023-01-28T15:49:04.139Z,13.30
2023-01-28T15:51:34.074Z,8.88
2023-01-28T15:54:07.661Z,16.23
2023-01-28T15:56:35.831Z,10.50
2023-01-28T15:59:27.170Z,9.13
2023-01-28T16:02:21.124Z,7.93
2023-01-28T16:05:03.490Z,7.85
2023-01-28T16:07:33.962Z,11.77
2023-01-28T16:10:03.597Z,11.07
2023-01-28T16:12:31.076Z,9.77
2023-01-28T16:15:04.294Z,7.85
2023-01-28T16:17:39.837Z,13.70
2023-01-28T16:20:19.497Z,8.75
2023-01-28T16:22:47.332Z,9.13
2023-01-28T16:25:36.917Z,7.90
2023-01-28T16:28:19.497Z,8.40
2023-01-28T16:30:47.212Z,11.90
2023-01-28T16:33:22.169Z,11.05
2023-01-28T16:36:05.486Z,10.10
2023-01-28T16:38:35.167Z,8.52
2023-01-28T16:41:02.823Z,10.02
2023-01-28T16:43:30.372Z,7.75
2023-01-28T16:45:57.872Z,10.02
2023-01-28T16:48:25.417Z,7.30
2023-01-28T16:50:52.896Z,12.10
2023-01-28T16:53:30.164Z,9.60
2023-01-28T16:55:57.685Z,9.57
2023-01-28T16:58:27.208Z,6.07
2023-01-28T17:00:54.948Z,11.10
2023-01-28T17:03:23.039Z,6.97
2023-01-28T17:05:50.933Z,8.07
2023-01-28T17:08:18.510Z,7.53
2023-01-28T17:10:45.956Z,8.77
2023-01-28T17:13:13.384Z,8.35
2023-01-28T17:15:41.031Z,10.25
2023-01-28T17:18:10.621Z,8.88
2023-01-28T17:20:40.413Z,9.77
2023-01-28T17:23:09.579Z,7.70
2023-01-28T17:25:39.218Z,12.15
2023-01-28T17:28:08.158Z,8.40
2023-01-28T17:30:40.333Z,8.13
2023-01-28T17:33:08.961Z,7.40
2023-01-28T17:35:36.686Z,8.05
2023-01-28T17:38:05.395Z,9.00
2023-01-28T17:40:33.261Z,9.30
2023-01-28T17:43:00.717Z,9.02
2023-01-28T17:45:31.327Z,14.82
2023-01-28T17:47:58.773Z,8.05
2023-01-28T17:50:26.828Z,8.43
2023-01-28T17:52:55.983Z,15.15
2023-01-28T17:55:24.507Z,13.75
2023-01-28T17:57:52.337Z,10.82
2023-01-28T18:00:20.618Z,11.13
2023-01-28T18:02:51.069Z,13.80
2023-01-28T18:05:19.507Z,11.35
2023-01-28T18:07:47.139Z,10.73
2023-01-28T18:10:15.287Z,10.88
2023-01-28T18:12:42.861Z,11.20
2023-01-28T18:15:11.341Z,7.93
2023-01-28T18:17:38.982Z,7.93
2023-01-28T18:20:06.903Z,12.68
2023-01-28T18:22:34.409Z,9.77
2023-01-28T18:25:02.222Z,11.50
2023-01-28T18:27:29.913Z,8.30
2023-01-28T18:29:57.939Z,9.65
2023-01-28T18:32:25.748Z,9.13
2023-01-28T18:34:53.427Z,12.52
2023-01-28T18:37:21.136Z,10.07
2023-01-28T18:39:48.789Z,12.98
2023-01-28T18:42:16.648Z,14.23
2023-01-28T18:44:44.368Z,14.57
2023-01-28T18:47:12.130Z,11.95
2023-01-28T18:49:41.863Z,15.50
2023-01-28T18:52:09.972Z,12.60
2023-01-28T18:54:37.613Z,13.27
2023-01-28T18:57:05.295Z,12.43
2023-01-28T18:59:32.948Z,12.40
2023-01-28T19:02:01.693Z,9.50
2023-01-28T19:04:29.480Z,18.73
2023-01-28T19:06:57.748Z,17.25
2023-01-28T19:09:25.548Z,13.68
2023-01-28T19:11:53.194Z,23.65
2023-01-28T19:14:20.939Z,16.98
2023-01-28T19:16:48.652Z,13.90
2023-01-28T19:19:16.386Z,11.38
2023-01-28T19:21:44.053Z,18.27
2023-01-28T19:24:14.030Z,14.70
2023-01-28T19:26:42.401Z,12.10
2023-01-28T19:29:12.080Z,13.43
2023-01-28T19:31:40.690Z,28.50
2023-01-28T19:34:08.690Z,18.50
2023-01-28T19:36:36.462Z,25.20
2023-01-28T19:39:06.514Z,23.70
2023-01-28T19:41:34.404Z,21.35
2023-01-28T19:44:02.191Z,19.90
2023-01-28T19:46:30.084Z,19.55
2023-01-28T19:48:58.605Z,17.60
2023-01-28T19:51:26.627Z,26.02
2023-01-28T19:53:55.308Z,25.20
2023-01-28T19:56:24.131Z,26.00
2023-01-28T19:58:53.367Z,22.52
2023-01-28T20:01:22.477Z,17.13
2023-01-28T20:03:55.206Z,18.33
2023-01-28T20:06:24.006Z,25.77
2023-01-28T20:08:53.500Z,27.38
2023-01-28T20:11:21.876Z,24.23
2023-01-28T20:13:51.621Z,21.27
2023-01-28T20:16:24.357Z,28.08
2023-01-28T20:19:14.754Z,21.38
2023-01-28T20:21:42.664Z,26.45
2023-01-28T20:24:14.898Z,24.77
2023-01-28T20:26:43.906Z,25.77
2023-01-28T20:29:18.052Z,20.67
2023-01-28T20:31:54.069Z,18.30
2023-01-28T20:34:28.554Z,20.77
2023-01-28T20:36:55.910Z,25.45
2023-01-28T20:39:23.360Z,16.90
2023-01-28T20:41:51.050Z,26.45
2023-01-28T20:44:18.450Z,26.85
2023-01-28T20:46:45.689Z,28.75
2023-01-28T20:49:13.037Z,27.10
2023-01-28T20:51:40.583Z,26.17
2023-01-28T20:54:07.887Z,23.75
2023-01-28T20:56:35.256Z,23.17
2023-01-28T20:59:05.285Z,26.92
2023-01-28T21:01:35.590Z,28.48
2023-01-28T21:04:04.884Z,29.92
2023-01-28T21:06:32.653Z,29.50
2023-01-28T21:09:00.155Z,24.63
2023-01-28T21:11:27.684Z,27.48
2023-01-28T21:13:56.123Z,25.45
2023-01-28T21:16:24.287Z,33.45
2023-01-28T21:18:51.817Z,21.58
2023-01-28T21:21:21.671Z,32.25
2023-01-28T21:23:49.632Z,24.23
2023-01-28T21:26:17.495Z,26.95
2023-01-28T21:28:45.273Z,27.17
2023-01-28T21:31:18.031Z,25.55
2023-01-28T21:33:54.909Z,29.33
2023-01-28T21:36:22.788Z,26.15
2023-01-28T21:38:57.781Z,19.65
2023-01-28T21:41:25.640Z,25.80
2023-01-28T21:43:55.037Z,22.75
2023-01-28T21:46:24.262Z,26.13
2023-01-28T21:49:03.283Z,25.23
2023-01-28T21:51:40.348Z,25.73
2023-01-28T21:54:16.718Z,28.90
2023-01-28T21:56:45.465Z,34.20
2023-01-28T21:59:28.596Z,29.45
2023-01-28T22:02:24.085Z,25.00
2023-01-28T22:04:51.500Z,35.45
2023-01-28T22:07:20.144Z,21.95
2023-01-28T22:09:47.839Z,19.35
2023-01-28T22:12:16.097Z,24.42
2023-01-28T22:14:44.217Z,20.83
2023-01-28T22:17:12.049Z,23.40
2023-01-28T22:19:39.649Z,21.58
2023-01-28T22:22:07.451Z,21.90
2023-01-28T22:24:34.806Z,28.20
2023-01-28T22:27:02.092Z,28.02
2023-01-28T22:29:29.366Z,27.48
2023-01-28T22:31:56.823Z,21.63
2023-01-28T22:34:24.313Z,21.38
2023-01-28T22:36:51.758Z,21.08
2023-01-28T22:39:19.133Z,22.90
2023-01-28T22:41:47.047Z,20.27
2023-01-28T22:44:14.799Z,22.25
2023-01-28T22:46:42.290Z,21.48
2023-01-28T22:49:12.015Z,21.83
2023-01-28T22:51:39.524Z,25.05
2023-01-28T22:54:07.238Z,17.33
2023-01-28T22:56:34.643Z,19.65
2023-01-28T22:59:03.678Z,18.70
2023-01-28T23:01:31.239Z,17.38
2023-01-28T23:03:58.851Z,23.15
2023-01-28T23:06:27.408Z,22.23
2023-01-28T23:08:56.271Z,20.00
2023-01-28T23:11:28.475Z,17.80
2023-01-28T23:14:21.009Z,24.92
2023-01-28T23:17:07.858Z,22.20
2023-01-28T23:19:54.157Z,22.33
2023-01-28T23:22:51.713Z,18.75
2023-01-28T23:25:19.835Z,22.13
2023-01-28T23:27:47.175Z,17.20
2023-01-28T23:30:15.454Z,19.88
2023-01-28T23:32:47.461Z,18.33
2023-01-28T23:35:15.522Z,15.68
2023-01-28T23:37:42.890Z,20.35
2023-01-28T23:40:10.850Z,14.70
2023-01-28T23:42:38.162Z,19.95
2023-01-28T23:45:06.722Z,15.70
2023-01-28T23:47:34.087Z,19.80
2023-01-28T23:50:01.901Z,18.77
2023-01-28T23:52:29.199Z,15.48
2023-01-28T23:54:56.467Z,21.25
2023-01-28T23:57:23.923Z,21.05
2023-01-28T23:59:51.899Z,26.80
